Time;durP1;ratioP1;P1;durP2;ratioP2;P2;SDS_P1;SDS_P2;PMS_P1;PMS_P2;Temp;Humidity;BMP_temperature;BMP_pressure;BME280_temperature;BME280_humidity;BME280_pressure;Samples;Min_cycle;Max_cycle;Signal;HPM_P1;HPM_P2
2022/03/01 00:02:05;;;;;;;;;;;;;;;-0.54;64.97;100709.89;1678396;85;20122;-63
2022/03/01 00:04:32;;;;;;;;;;;;;;;-0.56;65.00;100711.15;1695813;84;20143;-63
2022/03/01 00:07:17;;;;;;;;;;;;;;;-0.54;65.42;100710.41;1706907;84;20115;-62
2022/03/01 00:09:43;;;;;;;;;;;;;;;-0.56;65.22;100709.28;1707005;84;21083;-62
2022/03/01 00:12:10;;;;;;;;;;;;;;;-0.59;65.14;100703.00;1696839;84;20167;-63
2022/03/01 00:14:55;;;;;;;;;;;;;;;-0.60;65.14;100709.43;1690819;84;20189;-63
2022/03/01 00:17:21;;;;;;;;;;;;;;;-0.61;65.33;100703.73;1701132;84;20115;-62
2022/03/01 00:19:47;;;;;;;;;;;;;;;-0.60;65.87;100704.55;1710368;84;20142;-62
2022/03/01 00:22:14;;;;;;;;;;;;;;;-0.58;65.74;100708.70;1677162;85;21165;-62
2022/03/01 00:24:40;;;;;;;;;;;;;;;-0.57;65.39;100704.09;1699843;84;21641;-69
2022/03/01 00:27:25;;;;;;;;;;;;;;;-0.57;65.33;100705.45;1691904;85;20163;-62
2022/03/01 00:29:51;;;;;;;;;;;;;;;-0.59;65.56;100700.81;1691894;85;20151;-65
2022/03/01 00:32:36;;;;;;;;;;;;;;;-0.60;65.86;100700.52;1689825;84;20175;-62
2022/03/01 00:35:03;;;;;;;;;;;;;;;-0.63;65.91;100695.02;1690413;85;21129;-63
2022/03/01 00:37:30;;;;;;;;;;;;;;;-0.65;65.95;100696.28;1690107;85;20092;-63
2022/03/01 00:39:56;;;;;;;;;;;;;;;-0.68;66.07;100690.27;1689814;85;20183;-62
2022/03/01 00:42:23;;;;;;;;;;;;;;;-0.68;66.13;100685.41;1689962;83;20172;-62
2022/03/01 00:45:10;;;;;;;;;;;;;;;-0.69;66.81;100683.75;1689876;85;20459;-61
2022/03/01 00:47:36;;;;;;;;;;;;;;;-0.72;66.52;100678.78;1678340;84;21103;-62
2022/03/01 00:50:04;;;;;;;;;;;;;;;-0.74;66.54;100681.69;1689766;85;20127;-62
2022/03/01 00:52:31;;;;;;;;;;;;;;;-0.74;66.63;100674.95;1673660;85;20106;-62
2022/03/01 00:54:57;;;;;;;;;;;;;;;-0.74;66.89;100677.64;1664029;86;20106;-61
2022/03/01 00:57:41;;;;;;;;;;;;;;;-0.74;66.98;100682.21;1664194;86;20098;-61
2022/03/01 01:00:27;;;;;;;;;;;;;;;-0.74;66.83;100680.86;1664102;86;20129;-61
2022/03/01 01:03:12;;;;;;;;;;;;;;;-0.75;66.74;100679.20;1673949;84;20147;-61
2022/03/01 01:05:56;;;;;;;;;;;;;;;-0.74;66.81;100680.86;1676811;84;20156;-62
2022/03/01 01:08:23;;;;;;;;;;;;;;;-0.72;67.06;100683.66;1678705;84;20182;-61
2022/03/01 01:11:08;;;;;;;;;;;;;;;-0.70;67.03;100683.44;1677836;84;20099;-67
2022/03/01 01:13:37;;;;;;;;;;;;;;;-0.71;66.95;100683.95;1678342;84;20458;-62
2022/03/01 01:16:21;;;;;;;;;;;;;;;-0.73;67.11;100683.34;1690053;85;20103;-63
2022/03/01 01:18:47;;;;;;;;;;;;;;;-0.73;66.80;100683.34;1674725;85;20449;-62
2022/03/01 01:21:15;;;;;;;;;;;;;;;-0.73;67.21;100685.22;1674622;85;20093;-64
2022/03/01 01:23:42;;;;;;;;;;;;;;;-0.73;67.17;100682.52;1673525;84;20134;-62
2022/03/01 01:26:26;;;;;;;;;;;;;;;-0.76;67.15;100687.81;1709099;82;20150;-63
2022/03/01 01:28:55;;;;;;;;;;;;;;;-0.74;67.23;100685.73;1707543;82;20160;-64
2022/03/01 01:31:21;;;;;;;;;;;;;;;-0.73;67.13;100685.22;1706008;84;20086;-64
2022/03/01 01:34:08;;;;;;;;;;;;;;;-0.72;67.53;100678.78;1706117;84;20087;-63
2022/03/01 01:36:35;;;;;;;;;;;;;;;-0.72;67.53;100678.26;1706500;84;20090;-64
2022/03/01 01:39:02;;;;;;;;;;;;;;;-0.71;67.42;100679.91;1706434;84;21160;-62
2022/03/01 01:41:28;;;;;;;;;;;;;;;-0.73;67.12;100678.47;1706298;84;20130;-63
2022/03/01 01:44:13;;;;;;;;;;;;;;;-0.78;67.56;100679.11;1706390;83;20111;-62
2022/03/01 01:46:58;;;;;;;;;;;;;;;-0.81;67.84;100679.54;1706373;84;20324;-62
2022/03/01 01:49:24;;;;;;;;;;;;;;;-0.82;67.83;100681.10;1706421;84;20098;-61
2022/03/01 01:52:09;;;;;;;;;;;;;;;-0.81;67.77;100685.45;1706430;84;20147;-64
2022/03/01 01:54:35;;;;;;;;;;;;;;;-0.82;67.85;100679.23;1705212;84;20090;-66
2022/03/01 01:57:17;;;;;;;;;;;;;;;-0.82;68.04;100679.23;1706151;83;20419;-65
2022/03/01 01:59:43;;;;;;;;;;;;;;;-0.83;68.07;100673.53;1706485;84;20611;-64
2022/03/01 02:02:12;;;;;;;;;;;;;;;-0.80;67.81;100677.67;1706433;84;20083;-64
2022/03/01 02:04:38;;;;;;;;;;;;;;;-0.80;67.86;100683.89;1706551;84;21187;-65
2022/03/01 02:07:05;;;;;;;;;;;;;;;-0.80;67.82;100678.50;1706358;83;20087;-65
2022/03/01 02:09:32;;;;;;;;;;;;;;;-0.81;67.75;100684.94;1706341;84;20454;-64
2022/03/01 02:11:58;;;;;;;;;;;;;;;-0.80;67.99;100680.37;1704604;84;20151;-63
2022/03/01 02:14:25;;;;;;;;;;;;;;;-0.78;67.96;100682.33;1696768;84;20460;-62
2022/03/01 02:17:10;;;;;;;;;;;;;;;-0.80;67.91;100673.11;1702199;82;20257;-62
2022/03/01 02:19:37;;;;;;;;;;;;;;;-0.82;67.83;100673.84;1702638;82;20170;-65
2022/03/01 02:22:05;;;;;;;;;;;;;;;-0.85;68.04;100674.27;1699267;83;20138;-64
2022/03/01 02:24:33;;;;;;;;;;;;;;;-0.86;68.34;100674.48;1657266;85;20461;-63
2022/03/01 02:27:03;;;;;;;;;;;;;;;-0.86;68.29;100678.00;1679031;85;20426;-64
2022/03/01 02:29:29;;;;;;;;;;;;;;;-0.88;68.43;100678.73;1699563;82;21140;-65
2022/03/01 02:31:58;;;;;;;;;;;;;;;-0.88;68.44;100673.87;1704132;84;20430;-65
2022/03/01 02:34:25;;;;;;;;;;;;;;;-0.87;68.68;100667.44;1704313;82;20126;-64
2022/03/01 02:37:10;;;;;;;;;;;;;;;-0.89;68.66;100669.00;1704784;82;20187;-64
2022/03/01 02:39:36;;;;;;;;;;;;;;;-0.87;68.60;100670.13;1705240;82;20173;-65
2022/03/01 02:42:21;;;;;;;;;;;;;;;-0.88;68.78;100664.43;1699210;82;20154;-64
2022/03/01 02:44:48;;;;;;;;;;;;;;;-0.88;68.78;100661.22;1704491;82;20142;-65
2022/03/01 02:47:15;;;;;;;;;;;;;;;-0.89;68.88;100669.00;1704745;82;20152;-64
2022/03/01 02:49:42;;;;;;;;;;;;;;;-0.91;68.89;100669.73;1705791;82;20200;-68
2022/03/01 02:52:09;;;;;;;;;;;;;;;-0.93;69.17;100668.29;1682565;84;20149;-63
2022/03/01 02:54:35;;;;;;;;;;;;;;;-0.96;69.29;100664.67;1695620;82;21547;-63
2022/03/01 02:57:02;;;;;;;;;;;;;;;-0.97;69.39;100662.50;1700948;84;20469;-62
2022/03/01 02:59:47;;;;;;;;;;;;;;;-0.98;69.66;100664.88;1707023;84;20195;-63
2022/03/01 03:02:15;;;;;;;;;;;;;;;-1.03;69.72;100653.91;1701874;84;20153;-62
2022/03/01 03:04:42;;;;;;;;;;;;;;;-1.05;70.00;100658.16;1691319;84;20110;-63
2022/03/01 03:07:08;;;;;;;;;;;;;;;-1.05;70.08;100654.13;1678950;85;20602;-63
2022/03/01 03:09:34;;;;;;;;;;;;;;;-1.07;70.29;100658.07;1678773;85;20154;-63
2022/03/01 03:12:19;;;;;;;;;;;;;;;-1.07;70.86;100658.07;1678852;85;20553;-63
2022/03/01 03:14:45;;;;;;;;;;;;;;;-1.08;71.10;100656.41;1678978;85;20121;-63
2022/03/01 03:17:11;;;;;;;;;;;;;;;-1.05;71.47;100657.34;1689569;82;20117;-63
2022/03/01 03:19:38;;;;;;;;;;;;;;;-1.11;71.74;100653.63;1712358;82;21139;-62
2022/03/01 03:22:05;;;;;;;;;;;;;;;-1.16;72.29;100649.94;1690416;84;20133;-62
2022/03/01 03:24:32;;;;;;;;;;;;;;;-1.19;72.67;100657.10;1706573;82;20127;-62
2022/03/01 03:26:58;;;;;;;;;;;;;;;-1.22;73.07;100655.66;1706793;82;20544;-62
2022/03/01 03:29:27;;;;;;;;;;;;;;;-1.23;73.34;100650.48;1707058;84;20115;-61
2022/03/01 03:31:57;;;;;;;;;;;;;;;-1.21;73.60;100655.97;1705854;84;22518;-62
2022/03/01 03:34:40;;;;;;;;;;;;;;;-1.22;73.89;100654.31;1706917;84;20150;-63
2022/03/01 03:37:07;;;;;;;;;;;;;;;-1.28;74.27;100644.37;1707135;84;20098;-61
2022/03/01 03:39:52;;;;;;;;;;;;;;;-1.28;74.74;100648.94;1707224;84;20099;-62
2022/03/01 03:42:19;;;;;;;;;;;;;;;-1.32;75.07;100646.36;1707153;82;20110;-62
2022/03/01 03:45:05;;;;;;;;;;;;;;;-1.38;75.18;100642.12;1706659;84;20123;-62
2022/03/01 03:47:50;;;;;;;;;;;;;;;-1.41;75.77;100636.33;1724307;82;20131;-63
2022/03/01 03:50:17;;;;;;;;;;;;;;;-1.47;76.25;100635.82;1707492;82;20497;-62
2022/03/01 03:53:02;;;;;;;;;;;;;;;-1.51;76.50;100638.62;1706243;84;20497;-63
2022/03/01 03:55:50;;;;;;;;;;;;;;;-1.56;77.20;100637.91;1707163;84;20086;-63
2022/03/01 03:58:17;;;;;;;;;;;;;;;-1.60;78.20;100642.06;1647121;87;21830;-62
2022/03/01 04:00:43;;;;;;;;;;;;;;;-1.66;78.96;100642.38;1631905;88;20160;-61
2022/03/01 04:03:10;;;;;;;;;;;;;;;-1.70;79.49;100643.83;1647710;87;20124;-61
2022/03/01 04:05:36;;;;;;;;;;;;;;;-1.71;79.90;100638.14;1647594;87;20088;-62
2022/03/01 04:08:04;;;;;;;;;;;;;;;-1.72;80.32;100632.44;1647562;87;20163;-62
2022/03/01 04:10:30;;;;;;;;;;;;;;;-1.76;80.89;100627.72;1647357;87;21815;-61
2022/03/01 04:13:15;;;;;;;;;;;;;;;-1.79;81.67;100622.23;1646841;87;20111;-62
2022/03/01 04:15:43;;;;;;;;;;;;;;;-1.83;81.99;100622.34;1647058;87;20119;-62
2022/03/01 04:18:09;;;;;;;;;;;;;;;-1.84;82.61;100618.51;1647115;86;20107;-65
2022/03/01 04:20:36;;;;;;;;;;;;;;;-1.88;83.10;100622.66;1665197;85;20137;-62
2022/03/01 04:23:02;;;;;;;;;;;;;;;-1.92;83.50;100622.75;1673629;85;21884;-62
2022/03/01 04:25:29;;;;;;;;;;;;;;;-1.96;83.80;100616.13;1644561;87;20113;-63
2022/03/01 04:27:55;;;;;;;;;;;;;;;-1.99;83.94;100621.41;1650595;86;20457;-63
2022/03/01 04:30:41;;;;;;;;;;;;;;;-2.05;84.55;100627.11;1654851;86;20122;-62
2022/03/01 04:33:07;;;;;;;;;;;;;;;-2.13;85.07;100620.58;1653662;86;20184;-62
2022/03/01 04:35:34;;;;;;;;;;;;;;;-2.17;85.58;100616.65;1614517;89;21808;-62
2022/03/01 04:38:20;;;;;;;;;;;;;;;-2.22;86.27;100617.78;1614370;89;20445;-63
2022/03/01 04:40:47;;;;;;;;;;;;;;;-2.24;86.90;100615.81;1641120;87;20203;-62
2022/03/01 04:43:31;;;;;;;;;;;;;;;-2.26;87.38;100620.58;1640656;87;20168;-62
2022/03/01 04:45:59;;;;;;;;;;;;;;;-2.27;87.65;100623.47;1640922;87;20141;-62
2022/03/01 04:48:44;;;;;;;;;;;;;;;-2.26;88.05;100626.47;1647907;85;20150;-61
2022/03/01 04:51:12;;;;;;;;;;;;;;;-2.25;88.74;100634.85;1621099;87;20119;-62
2022/03/01 04:53:40;;;;;;;;;;;;;;;-2.28;89.17;100628.02;1660782;85;20130;-62
2022/03/01 04:56:25;;;;;;;;;;;;;;;-2.28;89.94;100632.05;1648273;86;20093;-62
2022/03/01 04:58:52;;;;;;;;;;;;;;;-2.29;90.12;100630.91;1667599;86;20211;-62
2022/03/01 05:01:19;;;;;;;;;;;;;;;-2.27;90.53;100635.05;1650275;87;21160;-61
2022/03/01 05:04:04;;;;;;;;;;;;;;;-2.24;90.75;100636.51;1650129;87;20119;-63
2022/03/01 05:06:31;;;;;;;;;;;;;;;-2.21;90.95;100642.30;1648659;85;20121;-63
2022/03/01 05:08:57;;;;;;;;;;;;;;;-2.18;91.30;100639.20;1649864;86;20103;-63
2022/03/01 05:11:25;;;;;;;;;;;;;;;-2.16;91.40;100632.27;1650622;85;20438;-63
2022/03/01 05:13:53;;;;;;;;;;;;;;;-2.13;91.99;100630.52;1663181;86;21151;-63
2022/03/01 05:16:20;;;;;;;;;;;;;;;-2.14;91.89;100629.69;1663553;85;20085;-63
2022/03/01 05:18:47;;;;;;;;;;;;;;;-2.12;92.31;100630.31;1662921;86;20082;-63
2022/03/01 05:21:13;;;;;;;;;;;;;;;-2.08;92.62;100625.34;1662767;86;20106;-64
2022/03/01 05:23:41;;;;;;;;;;;;;;;-2.03;92.99;100626.89;1663170;86;20429;-63
2022/03/01 05:26:08;;;;;;;;;;;;;;;-1.98;93.11;100623.59;1663549;86;21726;-63
2022/03/01 05:28:34;;;;;;;;;;;;;;;-1.93;93.10;100615.20;1663136;86;20114;-62
2022/03/01 05:31:01;;;;;;;;;;;;;;;-1.87;93.42;100618.92;1662963;86;20105;-62
2022/03/01 05:33:46;;;;;;;;;;;;;;;-1.87;93.24;100617.58;1651820;86;20126;-62
2022/03/01 05:36:14;;;;;;;;;;;;;;;-1.83;93.83;100614.27;1663365;86;20467;-63
2022/03/01 05:39:01;;;;;;;;;;;;;;;-1.76;93.94;100618.30;1663257;86;21167;-62
2022/03/01 05:41:28;;;;;;;;;;;;;;;-1.68;93.76;100622.08;1663365;86;20081;-62
2022/03/01 05:43:55;;;;;;;;;;;;;;;-1.67;93.61;100621.05;1663185;86;20130;-63
2022/03/01 05:46:22;;;;;;;;;;;;;;;-1.64;93.99;100619.80;1663451;86;20478;-63
2022/03/01 05:48:50;;;;;;;;;;;;;;;-1.63;93.69;100616.90;1663375;86;20090;-62
2022/03/01 05:51:35;;;;;;;;;;;;;;;-1.61;93.60;100618.86;1663151;86;20146;-62
2022/03/01 05:54:01;;;;;;;;;;;;;;;-1.60;93.46;100615.13;1662039;86;20169;-65
2022/03/01 05:56:28;;;;;;;;;;;;;;;-1.56;93.66;100610.98;1662524;86;20436;-63
2022/03/01 05:59:14;;;;;;;;;;;;;;;-1.50;93.92;100607.97;1661188;85;20162;-62
2022/03/01 06:01:40;;;;;;;;;;;;;;;-1.46;93.51;100603.30;1658943;85;20147;-63
2022/03/01 06:04:26;;;;;;;;;;;;;;;-1.47;93.26;100594.08;1662139;86;20300;-65
2022/03/01 06:06:53;;;;;;;;;;;;;;;-1.53;93.42;100599.79;1662514;85;20090;-66
2022/03/01 06:09:19;;;;;;;;;;;;;;;-1.52;93.66;100591.19;1662704;86;20177;-64
2022/03/01 06:11:46;;;;;;;;;;;;;;;-1.50;93.47;100590.46;1662780;86;20447;-64
2022/03/01 06:14:12;;;;;;;;;;;;;;;-1.47;93.43;100591.39;1662650;86;20266;-66
2022/03/01 06:16:39;;;;;;;;;;;;;;;-1.48;93.50;100593.77;1658724;85;21118;-65
2022/03/01 06:19:06;;;;;;;;;;;;;;;-1.50;93.59;100595.84;1650304;86;20461;-64
2022/03/01 06:21:32;;;;;;;;;;;;;;;-1.52;93.90;100598.75;1661088;85;20174;-65
2022/03/01 06:24:00;;;;;;;;;;;;;;;-1.52;93.93;100606.83;1656337;86;20149;-62
2022/03/01 06:26:45;;;;;;;;;;;;;;;-1.48;94.07;100611.27;1645201;86;20138;-62
2022/03/01 06:29:11;;;;;;;;;;;;;;;-1.43;93.88;100606.91;1662875;85;21856;-64
2022/03/01 06:31:40;;;;;;;;;;;;;;;-1.39;93.79;100612.19;1661906;86;20086;-63
2022/03/01 06:34:06;;;;;;;;;;;;;;;-1.38;93.87;100608.45;1634312;86;20102;-65
2022/03/01 06:36:33;;;;;;;;;;;;;;;-1.33;93.96;100601.08;1659151;86;20118;-65
2022/03/01 06:39:00;;;;;;;;;;;;;;;-1.28;93.80;100601.80;1662783;86;20090;-65
2022/03/01 06:41:27;;;;;;;;;;;;;;;-1.24;93.64;100602.50;1662901;85;21159;-63
2022/03/01 06:43:54;;;;;;;;;;;;;;;-1.20;93.67;100610.98;1662635;86;20154;-64
2022/03/01 06:46:20;;;;;;;;;;;;;;;-1.22;93.49;100605.81;1662960;86;20118;-63
2022/03/01 06:48:47;;;;;;;;;;;;;;;-1.22;93.48;100604.98;1663004;85;20981;-62
2022/03/01 06:51:14;;;;;;;;;;;;;;;-1.23;93.68;100603.33;1663109;86;20114;-63
2022/03/01 06:53:58;;;;;;;;;;;;;;;-1.24;93.68;100604.38;1663482;86;20440;-63
2022/03/01 06:56:24;;;;;;;;;;;;;;;-1.20;94.25;100602.91;1662286;86;20129;-62
2022/03/01 06:58:52;;;;;;;;;;;;;;;-1.17;94.16;100611.39;1665082;85;20440;-62
2022/03/01 07:01:19;;;;;;;;;;;;;;;-1.17;93.97;100606.52;1665502;86;20187;-62
2022/03/01 07:03:46;;;;;;;;;;;;;;;-1.15;94.02;100599.84;1665638;85;20128;-62
2022/03/01 07:06:14;;;;;;;;;;;;;;;-1.11;94.13;100602.94;1665657;86;21163;-62
2022/03/01 07:08:44;;;;;;;;;;;;;;;-1.10;94.39;100601.38;1665740;85;20445;-62
2022/03/01 07:11:11;;;;;;;;;;;;;;;-1.06;94.53;100597.22;1665768;86;20106;-62
2022/03/01 07:13:39;;;;;;;;;;;;;;;-1.01;94.57;100600.63;1665665;85;20455;-61
2022/03/01 07:16:23;;;;;;;;;;;;;;;-0.93;94.97;100592.29;1665760;86;20122;-62
2022/03/01 07:19:08;;;;;;;;;;;;;;;-0.79;94.65;100601.14;1665930;86;20110;-61
2022/03/01 07:21:35;;;;;;;;;;;;;;;-0.69;94.47;100592.89;1665600;86;20090;-62
2022/03/01 07:24:05;;;;;;;;;;;;;;;-0.61;93.98;100590.98;1665769;86;20102;-62
2022/03/01 07:26:31;;;;;;;;;;;;;;;-0.54;93.90;100595.25;1665895;86;20131;-62
2022/03/01 07:29:16;;;;;;;;;;;;;;;-0.40;93.58;100600.05;1665852;86;20421;-61
2022/03/01 07:31:46;;;;;;;;;;;;;;;-0.38;92.87;100593.91;1665849;86;21359;-61
2022/03/01 07:34:13;;;;;;;;;;;;;;;-0.39;92.75;100601.17;1665890;86;37565;-62
2022/03/01 07:36:39;;;;;;;;;;;;;;;-0.35;92.99;100592.95;1665885;85;20174;-61
2022/03/01 07:39:24;;;;;;;;;;;;;;;-0.30;92.77;100590.94;1665881;86;20452;-61
2022/03/01 07:41:52;;;;;;;;;;;;;;;-0.28;92.54;100594.25;1665774;86;20216;-61
2022/03/01 07:44:19;;;;;;;;;;;;;;;-0.31;92.48;100592.51;1665646;86;21171;-62
2022/03/01 07:46:45;;;;;;;;;;;;;;;-0.34;92.23;100591.91;1665984;86;20480;-61
2022/03/01 07:49:11;;;;;;;;;;;;;;;-0.38;92.20;100593.38;1665781;86;20424;-61
2022/03/01 07:51:56;;;;;;;;;;;;;;;-0.43;92.37;100594.56;1665696;86;20098;-62
2022/03/01 07:54:40;;;;;;;;;;;;;;;-0.41;92.59;100598.39;1665831;86;20090;-61
2022/03/01 07:57:07;;;;;;;;;;;;;;;-0.39;92.73;100607.09;1646394;86;20486;-61
2022/03/01 07:59:33;;;;;;;;;;;;;;;-0.42;92.82;100600.26;1636226;87;20922;-63
2022/03/01 08:02:18;;;;;;;;;;;;;;;-0.43;93.05;100598.61;1636321;87;20104;-61
2022/03/01 08:04:44;;;;;;;;;;;;;;;-0.43;93.03;100599.13;1636320;87;20104;-63
2022/03/01 08:07:12;;;;;;;;;;;;;;;-0.42;93.32;100589.99;1636651;87;20092;-62
2022/03/01 08:09:40;;;;;;;;;;;;;;;-0.46;93.25;100591.47;1636447;87;21169;-62
2022/03/01 08:12:07;;;;;;;;;;;;;;;-0.50;93.29;100595.12;1636422;87;20108;-62
2022/03/01 08:14:52;;;;;;;;;;;;;;;-0.54;93.29;100589.86;1636470;86;20116;-62
2022/03/01 08:17:20;;;;;;;;;;;;;;;-0.51;93.90;100589.95;1657392;86;20439;-62
2022/03/01 08:19:48;;;;;;;;;;;;;;;-0.49;94.04;100582.47;1663300;86;20116;-61
2022/03/01 08:22:14;;;;;;;;;;;;;;;-0.47;94.14;100584.42;1663235;86;21052;-61
2022/03/01 08:24:41;;;;;;;;;;;;;;;-0.48;94.06;100578.72;1663267;86;20088;-61
2022/03/01 08:27:07;;;;;;;;;;;;;;;-0.46;94.25;100577.98;1663275;86;20116;-61
2022/03/01 08:29:34;;;;;;;;;;;;;;;-0.47;94.40;100578.50;1663399;86;20538;-63
2022/03/01 08:32:03;;;;;;;;;;;;;;;-0.48;94.87;100572.80;1663375;86;20418;-61
2022/03/01 08:34:30;;;;;;;;;;;;;;;-0.48;95.00;100567.93;1659838;85;21124;-60
2022/03/01 08:36:56;;;;;;;;;;;;;;;-0.47;95.26;100570.94;1657948;86;20437;-61
2022/03/01 08:39:23;;;;;;;;;;;;;;;-0.46;95.38;100563.97;1658266;86;20110;-61
2022/03/01 08:41:53;;;;;;;;;;;;;;;-0.38;95.46;100565.58;1630356;86;20152;-60
2022/03/01 08:44:17;;;;;;;;;;;;;;;-0.31;96.09;100568.23;1658215;86;20101;-61
2022/03/01 08:46:44;;;;;;;;;;;;;;;-0.26;95.88;100574.61;1657908;86;21991;-62
2022/03/01 08:49:10;;;;;;;;;;;;;;;-0.21;96.03;100573.44;1659192;86;20122;-61
2022/03/01 08:51:36;;;;;;;;;;;;;;;-0.14;95.95;100576.08;1653323;86;20178;-62
2022/03/01 08:54:03;;;;;;;;;;;;;;;-0.10;95.70;100574.59;1657752;86;20090;-61
2022/03/01 08:56:30;;;;;;;;;;;;;;;-0.05;95.85;100572.06;1660237;85;20159;-62
2022/03/01 08:59:00;;;;;;;;;;;;;;;-0.04;95.48;100565.61;1664424;85;21155;-62
2022/03/01 09:01:27;;;;;;;;;;;;;;;-0.04;95.34;100568.31;1665377;86;20193;-63
2022/03/01 09:03:53;;;;;;;;;;;;;;;0.00;95.47;100565.47;1665520;86;20109;-63
2022/03/01 09:06:20;;;;;;;;;;;;;;;0.03;95.41;100572.27;1665301;85;20174;-61
2022/03/01 09:08:48;;;;;;;;;;;;;;;0.05;95.23;100570.17;1665383;86;20184;-62
2022/03/01 09:11:15;;;;;;;;;;;;;;;-0.02;94.71;100569.74;1665563;86;21157;-61
2022/03/01 09:13:41;;;;;;;;;;;;;;;-0.07;94.94;100570.93;1661076;84;20429;-62
2022/03/01 09:16:08;;;;;;;;;;;;;;;-0.09;95.01;100568.97;1651390;86;20089;-62
2022/03/01 09:18:36;;;;;;;;;;;;;;;-0.10;95.26;100570.55;1662953;86;20106;-62
2022/03/01 09:21:04;;;;;;;;;;;;;;;-0.10;95.34;100565.14;1630622;86;20446;-62
2022/03/01 09:23:33;;;;;;;;;;;;;;;-0.07;95.49;100571.45;1664269;85;20428;-63
2022/03/01 09:25:59;;;;;;;;;;;;;;;-0.06;95.02;100561.78;1664440;86;20172;-61
2022/03/01 09:28:27;;;;;;;;;;;;;;;-0.08;94.81;100560.35;1664128;86;20150;-61
2022/03/01 09:30:54;;;;;;;;;;;;;;;-0.07;95.00;100560.13;1659338;86;20133;-61
2022/03/01 09:33:22;;;;;;;;;;;;;;;-0.05;94.81;100557.21;1664103;85;20461;-62
2022/03/01 09:35:48;;;;;;;;;;;;;;;-0.03;94.85;100553.77;1663948;86;21850;-62
2022/03/01 09:38:14;;;;;;;;;;;;;;;0.01;95.03;100553.59;1660163;86;20178;-61
2022/03/01 09:40:41;;;;;;;;;;;;;;;0.05;94.69;100558.02;1659840;86;20089;-61
2022/03/01 09:43:08;;;;;;;;;;;;;;;0.02;94.18;100550.38;1664911;85;20167;-61
2022/03/01 09:45:35;;;;;;;;;;;;;;;-0.04;94.21;100546.72;1660048;86;20419;-62
2022/03/01 09:48:01;;;;;;;;;;;;;;;-0.04;94.44;100550.77;1656471;86;21164;-62
2022/03/01 09:50:27;;;;;;;;;;;;;;;0.00;94.32;100547.38;1656648;86;20103;-62
2022/03/01 09:52:55;;;;;;;;;;;;;;;-0.01;94.41;100549.80;1660596;86;20528;-61
2022/03/01 09:55:22;;;;;;;;;;;;;;;0.00;94.49;100554.12;1662029;84;21939;-64
2022/03/01 09:57:50;;;;;;;;;;;;;;;-0.05;94.41;100545.89;1637473;85;20474;-62
2022/03/01 10:00:17;;;;;;;;;;;;;;;-0.08;94.62;100546.86;1639652;86;21828;-62
2022/03/01 10:02:44;;;;;;;;;;;;;;;-0.06;94.82;100546.94;1659256;86;20150;-61
2022/03/01 10:05:12;;;;;;;;;;;;;;;-0.01;94.89;100544.92;1663282;86;20098;-61
2022/03/01 10:07:44;;;;;;;;;;;;;;;0.07;94.93;100541.08;1686962;84;20114;-62
2022/03/01 10:10:19;;;;;;;;;;;;;;;0.13;94.60;100541.02;1663276;86;20153;-61
2022/03/01 10:12:53;;;;;;;;;;;;;;;0.13;94.40;100539.66;1662136;86;21181;-63
2022/03/01 10:15:28;;;;;;;;;;;;;;;0.12;94.45;100543.94;1663137;86;20114;-61
2022/03/01 10:17:54;;;;;;;;;;;;;;;0.12;94.45;100544.77;1663465;86;20460;-62
2022/03/01 10:20:23;;;;;;;;;;;;;;;0.15;94.68;100538.92;1663154;86;20089;-63
2022/03/01 10:22:53;;;;;;;;;;;;;;;0.17;94.35;100542.75;1662943;86;20452;-62
2022/03/01 10:25:22;;;;;;;;;;;;;;;0.19;94.19;100536.08;1662997;86;21093;-62
2022/03/01 10:27:50;;;;;;;;;;;;;;;0.18;93.93;100542.52;1663279;85;20428;-61
2022/03/01 10:30:29;;;;;;;;;;;;;;;0.17;93.59;100541.39;1656899;86;20157;-62
2022/03/01 10:33:08;;;;;;;;;;;;;;;0.08;93.46;100534.63;1653295;86;20110;-61
2022/03/01 10:43:04;;;;;;;;;;;;;;;0.04;94.63;100534.78;1663158;86;20113;-66
2022/03/01 10:45:37;;;;;;;;;;;;;;;0.13;94.91;100532.09;1641920;86;20125;-67
2022/03/01 10:48:04;;;;;;;;;;;;;;;0.12;94.46;100529.09;1663296;86;20436;-68
2022/03/01 10:50:31;;;;;;;;;;;;;;;0.11;94.64;100528.79;1642237;86;20520;-64
2022/03/01 10:52:57;;;;;;;;;;;;;;;0.13;94.75;100526.16;1642061;86;21166;-65
2022/03/01 10:55:27;;;;;;;;;;;;;;;0.13;94.51;100520.77;1661478;85;20145;-65
2022/03/01 10:58:09;;;;;;;;;;;;;;;0.15;94.64;100525.42;1647372;86;20157;-65
2022/03/01 11:00:36;;;;;;;;;;;;;;;0.20;94.74;100522.05;1661129;85;20126;-66
2022/03/01 11:03:05;;;;;;;;;;;;;;;0.24;95.00;100520.02;1660494;86;20480;-63
2022/03/01 11:05:32;;;;;;;;;;;;;;;0.28;94.68;100518.53;1660660;85;20754;-67
2022/03/01 11:08:03;;;;;;;;;;;;;;;0.27;94.19;100522.28;1658765;85;20130;-64
2022/03/01 11:10:31;;;;;;;;;;;;;;;0.21;93.58;100519.65;1658193;86;20417;-63
2022/03/01 11:13:00;;;;;;;;;;;;;;;0.14;93.58;100516.19;1658159;86;20463;-64
2022/03/01 11:15:46;;;;;;;;;;;;;;;0.14;94.18;100513.48;1657970;86;20126;-64
2022/03/01 11:18:22;;;;;;;;;;;;;;;0.15;94.17;100506.52;1644283;86;21281;-70
2022/03/01 11:20:49;;;;;;;;;;;;;;;0.19;94.15;100505.55;1634140;88;20475;-70
2022/03/01 11:23:19;;;;;;;;;;;;;;;0.20;94.17;100509.90;1633809;88;20121;-69
2022/03/01 11:25:46;;;;;;;;;;;;;;;0.24;94.47;100509.75;1611172;88;20117;-67
2022/03/01 11:28:14;;;;;;;;;;;;;;;0.27;93.97;100503.90;1641552;85;20180;-67
2022/03/01 11:30:42;;;;;;;;;;;;;;;0.22;93.45;100499.17;1658923;86;23273;-66
2022/03/01 11:33:08;;;;;;;;;;;;;;;0.16;93.44;100494.66;1653834;86;20169;-66
2022/03/01 11:35:37;;;;;;;;;;;;;;;0.13;93.47;100498.34;1654923;86;20141;-67
2022/03/01 11:38:11;;;;;;;;;;;;;;;0.09;93.68;100490.38;1656784;86;20094;-67
2022/03/01 11:40:46;;;;;;;;;;;;;;;0.06;93.87;100491.66;1656625;86;20446;-68
2022/03/01 11:43:23;;;;;;;;;;;;;;;0.07;94.07;100485.73;1644672;86;21169;-66
2022/03/01 11:45:54;;;;;;;;;;;;;;;0.06;93.83;100482.20;1657599;86;20106;-66
2022/03/01 11:48:45;;;;;;;;;;;;;;;0.04;93.90;100484.83;1657020;86;20127;-65
2022/03/01 11:51:12;;;;;;;;;;;;;;;0.02;94.27;100485.58;1656293;86;20126;-64
2022/03/01 11:53:41;;;;;;;;;;;;;;;0.02;94.37;100482.36;1651836;86;20151;-63
2022/03/01 11:56:08;;;;;;;;;;;;;;;0.04;94.46;100481.61;1655499;86;21579;-67
2022/03/01 11:58:37;;;;;;;;;;;;;;;0.04;94.31;100487.00;1657830;86;20471;-67
2022/03/01 12:01:09;;;;;;;;;;;;;;;0.04;94.33;100487.00;1664945;86;20105;-66
2022/03/01 12:03:57;;;;;;;;;;;;;;;0.03;94.68;100484.53;1665159;86;20129;-66
2022/03/01 12:06:23;;;;;;;;;;;;;;;0.03;94.29;100488.05;1665320;86;20181;-67
2022/03/01 12:08:57;;;;;;;;;;;;;;;0.02;94.07;100484.23;1617180;86;20539;-66
2022/03/01 12:11:38;;;;;;;;;;;;;;;0.04;94.07;100479.43;1665052;86;20141;-67
2022/03/01 12:14:17;;;;;;;;;;;;;;;0.04;94.03;100477.55;1664773;85;20421;-68
2022/03/01 12:17:03;;;;;;;;;;;;;;;0.05;94.05;100471.63;1656225;85;20129;-66
2022/03/01 12:19:32;;;;;;;;;;;;;;;0.10;94.09;100470.44;1665680;86;20173;-66
2022/03/01 12:22:16;;;;;;;;;;;;;;;0.11;94.15;100473.44;1682287;84;21191;-63
2022/03/01 12:25:01;;;;;;;;;;;;;;;0.14;94.27;100472.47;1661248;86;20239;-62
2022/03/01 12:27:29;;;;;;;;;;;;;;;0.17;94.21;100477.94;1650759;84;20141;-65
2022/03/01 12:29:57;;;;;;;;;;;;;;;0.18;94.08;100480.94;1655799;86;20538;-64
2022/03/01 12:32:24;;;;;;;;;;;;;;;0.19;93.76;100483.42;1664247;85;20196;-64
2022/03/01 12:34:51;;;;;;;;;;;;;;;0.18;93.51;100480.94;1655701;86;21150;-65
2022/03/01 12:37:18;;;;;;;;;;;;;;;0.15;93.56;100479.52;1664824;86;20453;-63
2022/03/01 12:39:45;;;;;;;;;;;;;;;0.14;93.87;100472.47;1664169;86;21039;-63
2022/03/01 12:42:11;;;;;;;;;;;;;;;0.14;93.82;100475.69;1628926;86;20186;-62
2022/03/01 12:44:40;;;;;;;;;;;;;;;0.14;93.95;100471.64;1659642;86;20150;-62
2022/03/01 12:47:09;;;;;;;;;;;;;;;0.19;93.79;100471.79;1664024;86;21159;-63
2022/03/01 12:49:54;;;;;;;;;;;;;;;0.22;93.82;100455.14;1664522;86;20206;-63
2022/03/01 12:52:21;;;;;;;;;;;;;;;0.32;94.10;100458.13;1664788;85;20174;-62
2022/03/01 12:55:07;;;;;;;;;;;;;;;0.41;93.75;100450.02;1659381;86;20101;-62
2022/03/01 12:57:37;;;;;;;;;;;;;;;0.49;93.34;100451.59;1630030;86;20219;-62
2022/03/01 13:00:10;;;;;;;;;;;;;;;0.57;92.91;100452.62;1648133;84;21168;-62
2022/03/01 13:02:37;;;;;;;;;;;;;;;0.59;92.40;100455.37;1662819;84;20106;-64
2022/03/01 13:05:09;;;;;;;;;;;;;;;0.61;92.43;100453.27;1647581;84;20157;-65